Meteo Giornale » Osservazioni meteo Italia » Grazzanise

ore: 11:55 - Osservazioni Meteo Grazzanise
Lat. 41° 3' N Lon. 14° 4' E Alt. 9 metri s.l.m.

poco_nuvoloso Europe/Rome

29 °C

Poco Nuvoloso

Temp. 24 Ore

20 °C

31 °C

Ovest/Sud-Ovest

14.8 Km/h

Dew point 22 °C

Umidità 66 %

Visibilità  10 Km

Il sole sorge alle ore 05:35

Il sole tramonta alle ore 20:41

Data e Ora Cielo e Fenomeni T °C DP °C Um. % Pres. hPa Vis. km Vento km/h
Oggi h: 11:55 poco_nuvoloso Poco Nuvoloso 29 22 66 1011 10 O/SO 14.8
Oggi h: 10:55 nuvoloso Nuvoloso 27 24 83 1011 10 SO 9.3
Oggi h: 09:55 nuvoloso Nuvoloso 26 23 83 1011 10 N 5.5
Oggi h: 08:55 nuvoloso Nuvoloso 24 20 78 1011 10 N 3.7
Oggi h: 07:55 nuvoloso Nuvoloso 23 19 78 1011 10 N 3.7
Oggi h: 06:55 nuvoloso Nuvoloso 20 18 88 1010 10 N 3.7
Oggi h: 05:55 sereno Sereno 21 19 88 1010 10 N 3.7
Oggi h: 04:55 sereno Sereno 21 19 88 1010 10 N 0
Oggi h: 03:55 sereno Sereno 22 21 94 1010 10 N 0
Oggi h: 02:55 sereno Sereno 22 21 94 1011 10 N 3.7
Oggi h: 01:55 sereno Sereno 23 22 94 1010 10 N 3.7
Ieri h: 23:55 sereno Sereno 22 21 94 1010 10 N 5.5
Ieri h: 22:55 sereno Sereno 23 21 88 1010 10 N 3.7
Ieri h: 21:55 sereno Sereno 24 22 88 1010 10 O/SO 7.4
Ieri h: 20:55 sereno Sereno 25 22 83 1010 10 O/SO 13
Ieri h: 19:55 sereno Sereno 29 18 51 1010 10 O 11.1
Ieri h: 18:55 sereno Sereno 29 18 51 1010 10 O 9.3
Ieri h: 17:55 poco_nuvoloso Poco Nuvoloso 30 17 45 1010 10 O 13
Ieri h: 16:55 poco_nuvoloso Poco Nuvoloso 30 15 40 1010 10 O 18.5
Ieri h: 15:55 poco_nuvoloso Poco Nuvoloso 31 16 40 1010 10 O 18.5
Ieri h: 14:55 poco_nuvoloso Poco Nuvoloso 31 16 40 1011 10 O 16.7
Ieri h: 13:55 poco_nuvoloso Poco Nuvoloso 31 16 40 1011 10 O/SO 13
Ieri h: 12:55 poco_nuvoloso Poco Nuvoloso 31 18 45 1011 10 O/SO 13